createdAt,value
2022-10-15T00:01:42.161Z,12.80
2022-10-15T00:04:09.305Z,12.80
2022-10-15T00:06:36.367Z,12.70
2022-10-15T00:09:03.517Z,12.80
2022-10-15T00:11:31.277Z,12.80
2022-10-15T00:13:58.710Z,12.80
2022-10-15T00:16:26.201Z,12.80
2022-10-15T00:18:55.131Z,12.80
2022-10-15T00:21:22.162Z,12.90
2022-10-15T00:23:49.179Z,12.80
2022-10-15T00:26:16.995Z,12.90
2022-10-15T00:28:44.191Z,12.80
2022-10-15T00:31:12.486Z,12.80
2022-10-15T00:33:39.741Z,12.90
2022-10-15T00:36:13.818Z,12.80
2022-10-15T00:38:40.870Z,12.80
2022-10-15T00:41:08.123Z,12.80
2022-10-15T00:43:36.247Z,12.90
2022-10-15T00:46:03.366Z,12.90
2022-10-15T00:48:30.428Z,12.80
2022-10-15T00:50:57.678Z,12.80
2022-10-15T00:53:24.772Z,12.80
2022-10-15T00:55:51.788Z,12.80
2022-10-15T00:58:20.039Z,12.90
2022-10-15T01:00:47.096Z,13.00
2022-10-15T01:03:14.158Z,12.90
2022-10-15T01:05:41.203Z,12.90
2022-10-15T01:08:11.379Z,12.80
2022-10-15T01:10:42.593Z,12.90
2022-10-15T01:13:28.278Z,12.90
2022-10-15T01:15:56.463Z,12.90
2022-10-15T01:18:23.778Z,12.90
2022-10-15T01:20:52.370Z,12.90
2022-10-15T01:23:38.249Z,12.80
2022-10-15T01:26:23.995Z,12.80
2022-10-15T01:29:06.450Z,12.80
2022-10-15T01:31:42.575Z,12.80
2022-10-15T01:34:28.537Z,12.80
2022-10-15T01:36:59.330Z,12.90
2022-10-15T01:39:46.642Z,12.80
2022-10-15T01:42:15.811Z,12.80
2022-10-15T01:44:53.298Z,12.80
2022-10-15T01:47:38.021Z,12.80
2022-10-15T01:50:05.328Z,12.90
2022-10-15T01:52:33.246Z,13.00
2022-10-15T01:55:00.266Z,13.00
2022-10-15T01:57:27.435Z,13.10
2022-10-15T01:59:54.711Z,13.00
2022-10-15T02:02:24.248Z,13.10
2022-10-15T02:04:51.640Z,13.00
2022-10-15T02:07:23.503Z,13.00
2022-10-15T02:09:54.723Z,13.10
2022-10-15T02:12:28.191Z,13.00
2022-10-15T02:15:01.486Z,13.00
2022-10-15T02:17:33.600Z,13.10
2022-10-15T02:20:04.880Z,13.10
2022-10-15T02:22:33.594Z,13.00
2022-10-15T02:25:07.882Z,12.90
2022-10-15T02:27:35.067Z,12.90
2022-10-15T02:30:04.176Z,12.90
2022-10-15T02:32:32.791Z,12.90
2022-10-15T02:35:00.369Z,12.90
2022-10-15T02:37:27.427Z,12.90
2022-10-15T02:39:54.475Z,12.80
2022-10-15T02:42:21.833Z,12.80
2022-10-15T02:44:49.090Z,12.80
2022-10-15T02:47:16.607Z,12.80
2022-10-15T02:49:43.722Z,12.70
2022-10-15T02:52:11.414Z,12.70
2022-10-15T02:54:38.595Z,12.80
2022-10-15T02:57:05.682Z,12.80
2022-10-15T02:59:33.073Z,12.70
2022-10-15T03:02:00.129Z,12.80
2022-10-15T03:04:28.162Z,12.80
2022-10-15T03:06:55.453Z,12.80
2022-10-15T03:09:22.869Z,12.80
2022-10-15T03:11:49.935Z,12.80
2022-10-15T03:14:17.810Z,12.80
2022-10-15T03:16:44.937Z,12.80
2022-10-15T03:19:12.059Z,12.80
2022-10-15T03:21:39.843Z,12.80
2022-10-15T03:24:11.562Z,12.80
2022-10-15T03:26:38.675Z,12.80
2022-10-15T03:29:06.051Z,12.80
2022-10-15T03:31:42.553Z,12.90
2022-10-15T03:34:10.318Z,12.90
2022-10-15T03:36:37.463Z,12.90
2022-10-15T03:39:08.438Z,12.90
2022-10-15T03:41:36.788Z,12.90
2022-10-15T03:44:06.351Z,12.90
2022-10-15T03:46:34.565Z,12.90
2022-10-15T03:49:01.799Z,12.90
2022-10-15T03:51:31.759Z,12.90
2022-10-15T03:54:05.525Z,12.90
2022-10-15T03:56:39.098Z,12.90
2022-10-15T03:59:35.175Z,12.90
2022-10-15T04:02:03.675Z,13.00
2022-10-15T04:04:32.241Z,13.00
2022-10-15T04:06:59.635Z,13.00
2022-10-15T04:09:27.140Z,13.00
2022-10-15T04:12:10.397Z,13.00
2022-10-15T04:14:37.724Z,13.10
2022-10-15T04:17:04.820Z,13.10
2022-10-15T04:19:32.288Z,13.10
2022-10-15T04:22:04.012Z,13.10
2022-10-15T04:24:37.370Z,13.10
2022-10-15T04:27:04.495Z,13.10
2022-10-15T04:29:31.633Z,13.20
2022-10-15T04:32:13.037Z,13.20
2022-10-15T04:34:40.102Z,13.30
2022-10-15T04:37:07.231Z,13.30
2022-10-15T04:39:34.994Z,13.30
2022-10-15T04:42:02.154Z,13.30
2022-10-15T04:44:31.762Z,13.40
2022-10-15T04:46:59.326Z,13.40
2022-10-15T04:49:34.523Z,13.50
2022-10-15T04:52:08.016Z,13.50
2022-10-15T04:54:42.622Z,13.60
2022-10-15T04:57:09.621Z,13.60
2022-10-15T04:59:36.679Z,13.70
2022-10-15T05:02:22.275Z,13.70
2022-10-15T05:04:55.002Z,13.70
2022-10-15T05:07:22.898Z,13.80
2022-10-15T05:09:51.458Z,13.80
2022-10-15T05:12:18.547Z,13.80
2022-10-15T05:14:46.389Z,13.80
2022-10-15T05:17:23.145Z,13.90
2022-10-15T05:19:50.297Z,13.90
2022-10-15T05:22:21.787Z,14.00
2022-10-15T05:24:53.208Z,14.00
2022-10-15T05:27:46.179Z,14.00
2022-10-15T05:30:13.389Z,14.00
2022-10-15T05:32:51.751Z,14.10
2022-10-15T05:35:19.083Z,14.10
2022-10-15T05:38:12.281Z,14.10
2022-10-15T05:40:39.993Z,14.10
2022-10-15T05:43:13.786Z,14.00
2022-10-15T05:45:40.887Z,14.00
2022-10-15T05:48:07.958Z,14.00
2022-10-15T05:50:36.138Z,14.00
2022-10-15T05:53:06.819Z,14.10
2022-10-15T05:55:44.019Z,14.00
2022-10-15T05:58:11.053Z,14.10
2022-10-15T06:00:39.603Z,14.10
2022-10-15T06:03:06.603Z,14.10
2022-10-15T06:05:33.675Z,14.10
2022-10-15T06:08:00.702Z,14.10
2022-10-15T06:10:28.441Z,14.10
2022-10-15T06:12:55.653Z,14.10
2022-10-15T06:15:22.681Z,14.20
2022-10-15T06:17:51.714Z,14.10
2022-10-15T06:20:18.721Z,14.20
2022-10-15T06:22:45.743Z,14.10
2022-10-15T06:25:12.791Z,14.20
2022-10-15T06:27:39.802Z,14.20
2022-10-15T06:30:07.565Z,14.20
2022-10-15T06:32:34.633Z,14.10
2022-10-15T06:35:01.707Z,14.10
2022-10-15T06:37:29.117Z,14.10
2022-10-15T06:39:58.815Z,14.10
2022-10-15T06:42:25.818Z,14.10
2022-10-15T06:44:55.623Z,14.10
2022-10-15T06:47:22.967Z,14.20
2022-10-15T06:49:50.491Z,14.20
2022-10-15T06:52:17.511Z,14.20
2022-10-15T06:54:44.566Z,14.20
2022-10-15T06:57:11.593Z,14.20
2022-10-15T06:59:41.259Z,14.30
2022-10-15T07:02:11.536Z,14.30
2022-10-15T07:04:38.639Z,14.30
2022-10-15T07:07:05.694Z,14.40
2022-10-15T07:09:32.886Z,14.40
2022-10-15T07:11:59.896Z,14.40
2022-10-15T07:14:27.326Z,14.50
2022-10-15T07:16:54.411Z,14.40
2022-10-15T07:19:23.138Z,14.40
2022-10-15T07:21:50.235Z,14.50
2022-10-15T07:24:18.244Z,14.50
2022-10-15T07:26:46.947Z,14.50
2022-10-15T07:29:13.997Z,14.50
2022-10-15T07:31:41.067Z,14.60
2022-10-15T07:34:08.333Z,14.60
2022-10-15T07:36:35.358Z,14.60
2022-10-15T07:39:02.527Z,14.60
2022-10-15T07:41:30.301Z,14.60
2022-10-15T07:43:57.310Z,14.60
2022-10-15T07:46:24.327Z,14.50
2022-10-15T07:48:55.312Z,14.60
2022-10-15T07:51:22.334Z,14.60
2022-10-15T07:53:49.399Z,14.60
2022-10-15T07:56:16.620Z,14.60
2022-10-15T07:58:51.209Z,14.60
2022-10-15T08:01:18.735Z,14.60
2022-10-15T08:03:45.898Z,14.60
2022-10-15T08:06:13.052Z,14.70
2022-10-15T08:08:40.080Z,14.60
2022-10-15T08:11:07.736Z,14.70
2022-10-15T08:13:34.807Z,14.70
2022-10-15T08:16:01.857Z,14.70
2022-10-15T08:18:28.923Z,14.70
2022-10-15T08:20:58.324Z,14.70
2022-10-15T08:23:25.347Z,14.80
2022-10-15T08:25:52.336Z,14.80
2022-10-15T08:28:19.416Z,14.80
2022-10-15T08:30:46.519Z,14.80
2022-10-15T08:33:13.571Z,14.80
2022-10-15T08:35:41.388Z,14.80
2022-10-15T08:38:08.426Z,14.80
2022-10-15T08:40:36.839Z,14.80
2022-10-15T08:43:05.289Z,14.80
2022-10-15T08:45:34.442Z,14.80
2022-10-15T08:48:03.937Z,14.70
2022-10-15T08:50:35.986Z,14.60
2022-10-15T08:53:03.063Z,14.60
2022-10-15T08:55:35.396Z,14.60
2022-10-15T08:58:21.071Z,14.60
2022-10-15T09:00:54.759Z,14.60
2022-10-15T09:03:21.844Z,14.60
2022-10-15T09:05:51.376Z,14.60
2022-10-15T09:08:24.640Z,14.60
2022-10-15T09:10:52.350Z,14.70
2022-10-15T09:13:23.388Z,14.80
2022-10-15T09:15:57.655Z,14.90
2022-10-15T09:18:25.068Z,15.00
2022-10-15T09:20:52.268Z,15.20
2022-10-15T09:23:20.237Z,15.30
2022-10-15T09:25:53.150Z,15.40
2022-10-15T09:28:20.216Z,15.50
2022-10-15T09:30:48.286Z,15.60
2022-10-15T09:33:15.316Z,15.70
2022-10-15T09:35:47.354Z,15.80
2022-10-15T09:38:28.898Z,15.90
2022-10-15T09:41:18.857Z,16.00
2022-10-15T09:43:49.462Z,16.10
2022-10-15T09:46:16.583Z,16.10
2022-10-15T09:48:49.664Z,16.20
2022-10-15T09:51:28.158Z,16.20
2022-10-15T09:54:09.595Z,16.20
2022-10-15T09:56:42.936Z,16.30
2022-10-15T09:59:14.943Z,16.40
2022-10-15T10:01:42.477Z,16.50
2022-10-15T10:04:13.412Z,16.60
2022-10-15T10:06:44.266Z,16.70
2022-10-15T10:09:14.317Z,16.90
2022-10-15T10:11:48.766Z,17.00
2022-10-15T10:14:22.567Z,17.20
2022-10-15T10:17:08.418Z,17.40
2022-10-15T10:19:35.423Z,17.70
2022-10-15T10:22:06.459Z,17.80
2022-10-15T10:24:34.398Z,18.00
2022-10-15T10:27:01.446Z,18.10
2022-10-15T10:29:34.176Z,18.00
2022-10-15T10:32:12.240Z,18.00
2022-10-15T10:34:39.332Z,18.00
2022-10-15T10:37:07.726Z,18.10
2022-10-15T10:39:36.466Z,18.40
2022-10-15T10:42:07.371Z,18.50
2022-10-15T10:44:38.498Z,18.70
2022-10-15T10:47:08.517Z,18.80
2022-10-15T10:49:36.168Z,18.70
2022-10-15T10:52:04.296Z,18.70
2022-10-15T10:54:31.473Z,18.60
2022-10-15T10:56:58.956Z,18.50
2022-10-15T10:59:41.003Z,18.60
2022-10-15T11:02:12.100Z,18.80
2022-10-15T11:04:39.267Z,19.00
2022-10-15T11:07:07.000Z,18.90
2022-10-15T11:09:40.263Z,18.90
2022-10-15T11:15:34.362Z,18.90
2022-10-15T11:18:04.775Z,18.80
2022-10-15T11:20:52.975Z,18.80
2022-10-15T11:23:42.056Z,18.70
2022-10-15T11:26:27.610Z,18.70
2022-10-15T11:28:59.586Z,18.60
2022-10-15T11:31:40.403Z,18.60
2022-10-15T11:34:16.472Z,18.50
2022-10-15T11:37:02.263Z,18.50
2022-10-15T11:39:32.494Z,18.40
2022-10-15T11:42:07.125Z,18.50
2022-10-15T11:44:53.017Z,18.60
2022-10-15T11:47:38.970Z,18.80
2022-10-15T11:50:05.961Z,19.00
2022-10-15T11:52:37.632Z,19.20
2022-10-15T11:55:04.742Z,19.30
2022-10-15T11:57:32.700Z,19.60
2022-10-15T12:00:06.950Z,19.60
2022-10-15T12:02:39.414Z,19.30
2022-10-15T12:05:27.470Z,19.30
2022-10-15T12:07:54.554Z,19.20
2022-10-15T12:10:40.946Z,19.20
2022-10-15T12:13:14.164Z,19.00
2022-10-15T12:15:53.449Z,19.00
2022-10-15T12:18:23.197Z,19.00
2022-10-15T12:20:50.243Z,18.90
2022-10-15T12:23:24.487Z,19.00
2022-10-15T12:25:51.560Z,19.00
2022-10-15T12:28:18.664Z,19.10
2022-10-15T12:30:54.730Z,19.20
2022-10-15T12:33:24.753Z,19.30
2022-10-15T12:35:55.678Z,19.10
2022-10-15T12:38:32.318Z,19.00
2022-10-15T12:41:00.510Z,19.00
2022-10-15T12:43:28.298Z,18.90
2022-10-15T12:45:56.718Z,18.90
2022-10-15T12:48:39.958Z,18.90
2022-10-15T12:51:16.329Z,19.00
2022-10-15T12:53:43.832Z,19.10
2022-10-15T12:56:11.951Z,19.10
2022-10-15T12:58:42.118Z,19.00
2022-10-15T13:01:15.332Z,19.00
2022-10-15T13:03:48.379Z,19.00
2022-10-15T13:06:23.156Z,19.10
2022-10-15T13:08:50.178Z,19.10
2022-10-15T13:11:27.559Z,19.20
2022-10-15T13:14:14.831Z,19.40
2022-10-15T13:16:45.220Z,19.60
2022-10-15T13:19:32.169Z,19.40
2022-10-15T13:22:00.555Z,19.20
2022-10-15T13:24:48.897Z,19.10
2022-10-15T13:27:19.981Z,19.00
2022-10-15T13:29:59.978Z,18.90
2022-10-15T13:32:27.659Z,18.80
2022-10-15T13:34:56.115Z,18.90
2022-10-15T13:37:24.870Z,18.90
2022-10-15T13:39:52.708Z,18.80
2022-10-15T13:42:21.370Z,18.90
2022-10-15T13:45:01.295Z,18.90
2022-10-15T13:47:35.582Z,19.00
2022-10-15T13:50:18.009Z,19.00
2022-10-15T13:53:08.306Z,19.10
2022-10-15T13:55:36.415Z,19.30
2022-10-15T13:58:04.674Z,19.50
2022-10-15T14:00:32.690Z,19.60
2022-10-15T14:03:26.627Z,19.70
2022-10-15T14:05:53.858Z,19.70
2022-10-15T14:08:27.809Z,19.60
2022-10-15T14:10:56.027Z,19.50
2022-10-15T14:13:23.078Z,19.40
2022-10-15T14:15:50.112Z,19.30
2022-10-15T14:18:17.425Z,19.20
2022-10-15T14:20:45.347Z,19.20
2022-10-15T14:23:16.132Z,19.10
2022-10-15T14:25:44.406Z,19.10
2022-10-15T14:28:18.937Z,18.90
2022-10-15T14:30:47.961Z,18.80
2022-10-15T14:33:33.887Z,18.70
2022-10-15T14:36:05.255Z,18.70
2022-10-15T14:38:32.394Z,18.80
2022-10-15T14:41:07.117Z,18.80
2022-10-15T14:43:35.572Z,18.80
2022-10-15T14:46:03.742Z,18.90
2022-10-15T14:48:35.090Z,18.90
2022-10-15T14:51:06.443Z,18.80
2022-10-15T14:53:36.847Z,18.80
2022-10-15T14:56:08.318Z,18.70
2022-10-15T14:58:35.371Z,18.80
2022-10-15T15:01:03.047Z,18.60
2022-10-15T15:03:31.094Z,18.50
2022-10-15T15:05:58.272Z,18.50
2022-10-15T15:08:25.673Z,18.40
2022-10-15T15:10:53.032Z,18.40
2022-10-15T15:13:21.057Z,18.30
2022-10-15T15:15:48.177Z,18.20
2022-10-15T15:18:15.350Z,18.20
2022-10-15T15:20:43.741Z,18.30
2022-10-15T15:23:13.557Z,18.30
2022-10-15T15:25:40.667Z,18.40
2022-10-15T15:28:12.592Z,18.50
2022-10-15T15:30:40.308Z,18.60
2022-10-15T15:33:10.781Z,18.60
2022-10-15T15:35:51.002Z,18.60
2022-10-15T15:38:18.926Z,18.60
2022-10-15T15:40:46.175Z,18.50
2022-10-15T15:43:13.611Z,18.50
2022-10-15T15:45:40.659Z,18.40
2022-10-15T15:48:07.804Z,18.40
2022-10-15T15:50:34.852Z,18.30
2022-10-15T15:53:01.880Z,18.30
2022-10-15T15:55:28.898Z,18.30
2022-10-15T15:57:55.928Z,18.10
2022-10-15T16:00:22.942Z,18.00
2022-10-15T16:02:52.897Z,18.00
2022-10-15T16:05:24.425Z,18.00
2022-10-15T16:07:51.457Z,17.90
2022-10-15T16:10:18.699Z,17.90
2022-10-15T16:12:45.733Z,17.80
2022-10-15T16:15:14.812Z,17.70
2022-10-15T16:17:43.153Z,17.60
2022-10-15T16:20:10.666Z,17.50
2022-10-15T16:22:37.693Z,17.40
2022-10-15T16:25:05.024Z,17.40
2022-10-15T16:27:34.328Z,17.40
2022-10-15T16:30:01.981Z,17.40
2022-10-15T16:32:28.987Z,17.40
2022-10-15T16:34:55.997Z,17.30
2022-10-15T16:37:23.183Z,17.30
2022-10-15T16:39:50.535Z,17.30
2022-10-15T16:44:50.165Z,17.10
2022-10-15T16:47:17.194Z,17.00
2022-10-15T16:49:44.227Z,16.90
2022-10-15T16:52:11.327Z,16.80
2022-10-15T16:54:38.514Z,16.70
2022-10-15T16:57:05.556Z,16.60
2022-10-15T16:59:32.553Z,16.40
2022-10-15T17:02:01.181Z,16.40
2022-10-15T17:04:28.399Z,16.40
2022-10-15T17:06:55.429Z,16.30
2022-10-15T17:09:23.684Z,16.30
2022-10-15T17:11:50.715Z,16.30
2022-10-15T17:14:17.831Z,16.20
2022-10-15T17:16:49.014Z,16.20
2022-10-15T17:19:17.241Z,16.10
2022-10-15T17:21:46.981Z,16.10
2022-10-15T17:24:14.671Z,16.10
2022-10-15T17:26:41.927Z,16.20
2022-10-15T17:29:13.443Z,16.20
2022-10-15T17:31:40.566Z,16.20
2022-10-15T17:34:08.139Z,16.10
2022-10-15T17:36:42.856Z,16.00
2022-10-15T17:39:10.193Z,16.10
2022-10-15T17:41:37.192Z,16.00
2022-10-15T17:44:04.273Z,16.00
2022-10-15T17:46:31.314Z,15.90
2022-10-15T17:48:58.480Z,15.90
2022-10-15T17:51:26.793Z,15.90
2022-10-15T17:53:57.371Z,15.90
2022-10-15T17:56:25.963Z,15.80
2022-10-15T17:59:00.003Z,15.80
2022-10-15T18:01:39.482Z,15.80
2022-10-15T18:04:13.213Z,15.80
2022-10-15T18:06:42.659Z,15.80
2022-10-15T18:09:12.775Z,15.80
2022-10-15T18:11:39.798Z,15.80
2022-10-15T18:14:06.880Z,15.80
2022-10-15T18:16:33.958Z,15.80
2022-10-15T18:19:01.109Z,15.80
2022-10-15T18:21:28.599Z,15.90
2022-10-15T18:23:58.695Z,15.90
2022-10-15T18:26:25.834Z,15.90
2022-10-15T18:28:53.141Z,15.90
2022-10-15T18:31:20.367Z,15.90
2022-10-15T18:33:48.327Z,15.90
2022-10-15T18:36:16.222Z,15.90
2022-10-15T18:38:43.511Z,15.90
2022-10-15T18:41:14.531Z,15.90
2022-10-15T18:43:41.547Z,15.90
2022-10-15T18:46:08.640Z,15.80
2022-10-15T18:48:36.494Z,15.80
2022-10-15T18:51:08.435Z,15.80
2022-10-15T18:53:36.283Z,15.80
2022-10-15T18:56:03.508Z,15.70
2022-10-15T18:58:30.528Z,15.70
2022-10-15T19:00:58.194Z,15.70
2022-10-15T19:03:25.260Z,15.80
2022-10-15T19:05:52.259Z,15.80
2022-10-15T19:08:20.769Z,15.70
2022-10-15T19:10:48.526Z,15.70
2022-10-15T19:13:15.642Z,15.60
2022-10-15T19:15:42.660Z,15.60
2022-10-15T19:18:11.364Z,15.60
2022-10-15T19:20:39.817Z,15.60
2022-10-15T19:23:07.692Z,15.60
2022-10-15T19:25:34.774Z,15.60
2022-10-15T19:28:01.823Z,15.60
2022-10-15T19:30:29.288Z,15.60
2022-10-15T19:32:56.319Z,15.60
2022-10-15T19:35:23.404Z,15.60
2022-10-15T19:37:53.102Z,15.60
2022-10-15T19:40:20.111Z,15.70
2022-10-15T19:42:47.133Z,15.70
2022-10-15T19:47:42.199Z,15.60
2022-10-15T19:50:09.967Z,15.60
2022-10-15T19:52:37.011Z,15.60
2022-10-15T19:55:04.183Z,15.60
2022-10-15T19:57:31.336Z,15.50
2022-10-15T19:59:58.350Z,15.50
2022-10-15T20:02:25.350Z,15.50
2022-10-15T20:04:52.366Z,15.50
2022-10-15T20:07:19.383Z,15.50
2022-10-15T20:09:46.419Z,15.50
2022-10-15T20:12:13.435Z,15.60
2022-10-15T20:14:40.454Z,15.50
2022-10-15T20:17:07.475Z,15.50
2022-10-15T20:19:34.494Z,15.50
2022-10-15T20:22:01.499Z,15.50
2022-10-15T20:24:28.641Z,15.50
2022-10-15T20:26:55.675Z,15.40
2022-10-15T20:29:24.192Z,15.30
2022-10-15T20:31:51.488Z,15.30
2022-10-15T20:34:18.795Z,15.30
2022-10-15T20:36:45.830Z,15.20
2022-10-15T20:39:12.844Z,15.20
2022-10-15T20:41:40.455Z,15.20
2022-10-15T20:44:09.309Z,15.10
2022-10-15T20:46:37.341Z,15.10
2022-10-15T20:49:08.471Z,15.00
2022-10-15T20:51:36.680Z,14.90
2022-10-15T20:54:03.783Z,14.80
2022-10-15T20:56:30.906Z,14.80
2022-10-15T20:58:57.919Z,14.70
2022-10-15T21:01:25.469Z,14.60
2022-10-15T21:03:52.634Z,14.60
2022-10-15T21:06:20.555Z,14.60
2022-10-15T21:08:47.643Z,14.50
2022-10-15T21:11:14.709Z,14.50
2022-10-15T21:13:42.094Z,14.50
2022-10-15T21:16:09.195Z,14.40
2022-10-15T21:18:36.336Z,14.30
2022-10-15T21:21:04.317Z,14.30
2022-10-15T21:23:31.461Z,14.20
2022-10-15T21:26:05.692Z,14.30
2022-10-15T21:28:33.199Z,14.20
2022-10-15T21:31:03.616Z,14.20
2022-10-15T21:33:30.703Z,14.10
2022-10-15T21:35:57.714Z,14.10
2022-10-15T21:38:24.732Z,14.00
2022-10-15T21:40:51.783Z,14.00
2022-10-15T21:43:18.852Z,14.00
2022-10-15T21:45:45.867Z,14.00
2022-10-15T21:48:12.886Z,13.90
2022-10-15T21:50:39.922Z,13.90
2022-10-15T21:53:06.953Z,13.90
2022-10-15T21:55:33.971Z,13.80
2022-10-15T21:58:00.974Z,13.80
2022-10-15T22:00:27.989Z,13.70
2022-10-15T22:02:55.023Z,13.70
2022-10-15T22:05:22.083Z,13.70
2022-10-15T22:07:49.115Z,13.70
2022-10-15T22:10:16.136Z,13.80
2022-10-15T22:12:43.141Z,13.80
2022-10-15T22:15:10.389Z,13.70
2022-10-15T22:17:37.390Z,13.60
2022-10-15T22:20:04.623Z,13.60
2022-10-15T22:22:31.614Z,13.60
2022-10-15T22:24:59.600Z,13.60
2022-10-15T22:27:26.800Z,13.50
2022-10-15T22:29:53.815Z,13.50
2022-10-15T22:32:20.903Z,13.50
2022-10-15T22:34:48.054Z,13.40
2022-10-15T22:37:15.128Z,13.40
2022-10-15T22:39:42.144Z,13.40
2022-10-15T22:42:09.223Z,13.30
2022-10-15T22:44:36.239Z,13.30
2022-10-15T22:47:03.327Z,13.20
2022-10-15T22:49:30.347Z,13.20
2022-10-15T22:51:57.460Z,13.20
2022-10-15T22:54:24.548Z,13.20
2022-10-15T22:56:51.605Z,13.20
2022-10-15T22:59:18.652Z,13.20
2022-10-15T23:01:45.725Z,13.20
2022-10-15T23:04:13.610Z,13.20
2022-10-15T23:06:40.685Z,13.20
2022-10-15T23:09:08.090Z,13.20
2022-10-15T23:11:35.918Z,13.00
2022-10-15T23:14:04.642Z,13.00
2022-10-15T23:16:32.578Z,13.00
2022-10-15T23:19:00.384Z,12.90
2022-10-15T23:21:30.528Z,12.90
2022-10-15T23:23:57.604Z,12.80
2022-10-15T23:26:24.850Z,12.80
2022-10-15T23:28:52.596Z,12.70
2022-10-15T23:31:20.297Z,12.70
2022-10-15T23:33:47.401Z,12.70
2022-10-15T23:36:14.466Z,12.70
2022-10-15T23:38:41.501Z,12.60
2022-10-15T23:41:08.693Z,12.50
2022-10-15T23:43:35.719Z,12.50
2022-10-15T23:46:02.822Z,12.50
2022-10-15T23:48:29.871Z,12.50
2022-10-15T23:51:00.877Z,12.50
2022-10-15T23:53:31.486Z,12.50
2022-10-15T23:56:00.734Z,12.40
2022-10-15T23:58:27.731Z,12.40
